sensor_id;sensor_type;location;lat;lon;timestamp;pressure;altitude;pressure_sealevel;temperature;humidity
70458;BME280;57919;56.194;95.716;2023-12-07T00:09:39;98327.56;;;-24.59;66.41
70458;BME280;57919;56.194;95.716;2023-12-07T00:19:41;98371.56;;;-24.66;66.16
70458;BME280;57919;56.194;95.716;2023-12-07T00:29:43;98407.75;;;-24.54;66.19
70458;BME280;57919;56.194;95.716;2023-12-07T00:39:45;98423.38;;;-24.69;65.42
70458;BME280;57919;56.194;95.716;2023-12-07T00:49:48;98456.19;;;-24.55;66.26
70458;BME280;57919;56.194;95.716;2023-12-07T00:59:50;98516.88;;;-24.48;65.49
70458;BME280;57919;56.194;95.716;2023-12-07T01:09:52;98552.03;;;-24.41;65.94
70458;BME280;57919;56.194;95.716;2023-12-07T01:19:55;98574.84;;;-24.22;65.75
70458;BME280;57919;56.194;95.716;2023-12-07T01:29:57;98618.75;;;-24.77;64.62
70458;BME280;57919;56.194;95.716;2023-12-07T01:39:59;98642.53;;;-24.78;65.12
70458;BME280;57919;56.194;95.716;2023-12-07T01:50:02;98681.13;;;-24.91;64.59
70458;BME280;57919;56.194;95.716;2023-12-07T02:00:08;98710.75;;;-24.74;65.51
70458;BME280;57919;56.194;95.716;2023-12-07T02:10:11;98744.22;;;-24.87;64.68
70458;BME280;57919;56.194;95.716;2023-12-07T02:30:16;98812.09;;;-24.71;65.25
70458;BME280;57919;56.194;95.716;2023-12-07T02:40:24;98843.25;;;-24.59;63.83
70458;BME280;57919;56.194;95.716;2023-12-07T02:50:26;98873.09;;;-24.58;64.18
70458;BME280;57919;56.194;95.716;2023-12-07T03:00:29;98888.34;;;-24.60;64.16
70458;BME280;57919;56.194;95.716;2023-12-07T03:10:31;98929.59;;;-24.31;63.78
70458;BME280;57919;56.194;95.716;2023-12-07T03:20:33;98936.91;;;-23.78;64.34
70458;BME280;57919;56.194;95.716;2023-12-07T03:30:36;98959.00;;;-23.80;61.75
70458;BME280;57919;56.194;95.716;2023-12-07T03:40:38;98970.31;;;-24.34;60.27
70458;BME280;57919;56.194;95.716;2023-12-07T03:50:42;98990.34;;;-24.63;60.44
70458;BME280;57919;56.194;95.716;2023-12-07T04:00:44;99031.38;;;-24.58;60.64
70458;BME280;57919;56.194;95.716;2023-12-07T04:10:47;99046.50;;;-24.63;60.78
70458;BME280;57919;56.194;95.716;2023-12-07T04:20:49;99076.78;;;-24.33;61.07
70458;BME280;57919;56.194;95.716;2023-12-07T04:30:51;99078.09;;;-24.61;59.73
70458;BME280;57919;56.194;95.716;2023-12-07T04:40:54;99122.88;;;-24.49;59.39
70458;BME280;57919;56.194;95.716;2023-12-07T04:50:56;99140.66;;;-24.33;59.13
70458;BME280;57919;56.194;95.716;2023-12-07T05:00:58;99152.63;;;-23.76;60.53
70458;BME280;57919;56.194;95.716;2023-12-07T05:11:01;99189.47;;;-23.13;60.85
70458;BME280;57919;56.194;95.716;2023-12-07T05:21:03;99205.56;;;-23.15;55.77
70458;BME280;57919;56.194;95.716;2023-12-07T05:31:06;99234.25;;;-23.22;58.82
70458;BME280;57919;56.194;95.716;2023-12-07T05:41:08;99246.13;;;-23.05;59.23
70458;BME280;57919;56.194;95.716;2023-12-07T05:51:16;99277.91;;;-23.19;59.04
70458;BME280;57919;56.194;95.716;2023-12-07T06:01:19;99295.66;;;-23.42;58.96
70458;BME280;57919;56.194;95.716;2023-12-07T06:11:21;99318.75;;;-23.59;59.68
70458;BME280;57919;56.194;95.716;2023-12-07T06:21:23;99335.63;;;-23.99;59.09
70458;BME280;57919;56.194;95.716;2023-12-07T06:31:27;99360.75;;;-24.24;59.53
70458;BME280;57919;56.194;95.716;2023-12-07T06:41:29;99400.91;;;-24.21;59.13
70458;BME280;57919;56.194;95.716;2023-12-07T06:51:31;99431.22;;;-24.29;58.91
70458;BME280;57919;56.194;95.716;2023-12-07T07:01:33;99454.84;;;-24.33;59.35
70458;BME280;57919;56.194;95.716;2023-12-07T07:11:35;99482.19;;;-24.14;59.77
70458;BME280;57919;56.194;95.716;2023-12-07T07:21:38;99495.34;;;-23.90;59.68
70458;BME280;57919;56.194;95.716;2023-12-07T07:31:41;99544.09;;;-24.04;57.56
70458;BME280;57919;56.194;95.716;2023-12-07T07:41:43;99558.06;;;-23.81;59.57
70458;BME280;57919;56.194;95.716;2023-12-07T07:51:45;99565.16;;;-23.75;59.35
70458;BME280;57919;56.194;95.716;2023-12-07T08:01:47;99579.56;;;-23.77;59.58
70458;BME280;57919;56.194;95.716;2023-12-07T08:11:49;99604.97;;;-23.64;59.78
70458;BME280;57919;56.194;95.716;2023-12-07T08:21:52;99643.88;;;-23.70;59.53
70458;BME280;57919;56.194;95.716;2023-12-07T08:31:54;99661.69;;;-23.87;59.05
70458;BME280;57919;56.194;95.716;2023-12-07T08:41:56;99684.84;;;-24.01;59.80
70458;BME280;57919;56.194;95.716;2023-12-07T08:51:58;99707.94;;;-24.30;58.15
70458;BME280;57919;56.194;95.716;2023-12-07T09:02:00;99711.50;;;-25.02;56.11
70458;BME280;57919;56.194;95.716;2023-12-07T09:12:02;99752.56;;;-25.27;57.28
70458;BME280;57919;56.194;95.716;2023-12-07T09:22:05;99775.78;;;-25.50;57.03
70458;BME280;57919;56.194;95.716;2023-12-07T09:32:07;99806.47;;;-25.76;57.41
70458;BME280;57919;56.194;95.716;2023-12-07T09:42:09;99824.91;;;-25.52;58.70
70458;BME280;57919;56.194;95.716;2023-12-07T09:52:11;99843.47;;;-25.55;57.91
70458;BME280;57919;56.194;95.716;2023-12-07T10:02:13;99864.09;;;-25.78;56.32
70458;BME280;57919;56.194;95.716;2023-12-07T10:12:15;99875.47;;;-25.73;58.36
70458;BME280;57919;56.194;95.716;2023-12-07T10:22:18;99886.50;;;-25.60;58.99
70458;BME280;57919;56.194;95.716;2023-12-07T10:32:21;99908.09;;;-25.81;57.96
70458;BME280;57919;56.194;95.716;2023-12-07T10:42:24;99916.53;;;-25.95;56.61
70458;BME280;57919;56.194;95.716;2023-12-07T10:52:31;99945.88;;;-26.13;57.82
70458;BME280;57919;56.194;95.716;2023-12-07T11:02:36;99957.84;;;-26.12;57.94
70458;BME280;57919;56.194;95.716;2023-12-07T11:12:45;99966.00;;;-26.43;57.81
70458;BME280;57919;56.194;95.716;2023-12-07T11:22:50;99989.88;;;-26.16;58.41
70458;BME280;57919;56.194;95.716;2023-12-07T11:32:52;100000.66;;;-26.07;58.82
70458;BME280;57919;56.194;95.716;2023-12-07T11:42:54;100020.84;;;-26.10;58.69
70458;BME280;57919;56.194;95.716;2023-12-07T11:52:56;100043.47;;;-26.14;59.12
70458;BME280;57919;56.194;95.716;2023-12-07T12:02:58;100066.97;;;-25.94;59.88
70458;BME280;57919;56.194;95.716;2023-12-07T12:13:03;100075.38;;;-25.95;58.95
70458;BME280;57919;56.194;95.716;2023-12-07T12:23:06;100090.66;;;-26.19;58.93
70458;BME280;57919;56.194;95.716;2023-12-07T12:33:08;100091.53;;;-26.44;59.29
70458;BME280;57919;56.194;95.716;2023-12-07T12:43:10;100098.19;;;-26.58;59.29
70458;BME280;57919;56.194;95.716;2023-12-07T12:53:12;100128.19;;;-26.77;59.14
70458;BME280;57919;56.194;95.716;2023-12-07T13:03:14;100131.97;;;-26.95;59.32
70458;BME280;57919;56.194;95.716;2023-12-07T13:13:16;100133.63;;;-26.84;59.78
70458;BME280;57919;56.194;95.716;2023-12-07T13:23:19;100158.31;;;-27.06;59.73
70458;BME280;57919;56.194;95.716;2023-12-07T13:33:22;100167.75;;;-27.39;59.43
70458;BME280;57919;56.194;95.716;2023-12-07T13:43:24;100184.28;;;-27.55;59.45
70458;BME280;57919;56.194;95.716;2023-12-07T13:53:26;100189.66;;;-27.74;60.08
70458;BME280;57919;56.194;95.716;2023-12-07T14:03:28;100206.91;;;-27.25;61.12
70458;BME280;57919;56.194;95.716;2023-12-07T14:13:31;100208.78;;;-24.15;61.84
70458;BME280;57919;56.194;95.716;2023-12-07T14:23:33;100214.69;;;-24.69;59.46
70458;BME280;57919;56.194;95.716;2023-12-07T14:33:35;100206.56;;;-24.37;59.26
70458;BME280;57919;56.194;95.716;2023-12-07T14:43:37;100221.78;;;-26.26;58.02
70458;BME280;57919;56.194;95.716;2023-12-07T14:53:40;100238.53;;;-27.21;59.12
70458;BME280;57919;56.194;95.716;2023-12-07T15:03:42;100255.59;;;-27.76;58.96
70458;BME280;57919;56.194;95.716;2023-12-07T15:13:44;100254.63;;;-27.88;60.54
70458;BME280;57919;56.194;95.716;2023-12-07T15:23:46;100267.59;;;-28.59;59.63
70458;BME280;57919;56.194;95.716;2023-12-07T15:33:49;100284.75;;;-28.77;59.47
70458;BME280;57919;56.194;95.716;2023-12-07T15:43:51;100294.91;;;-28.77;59.94
70458;BME280;57919;56.194;95.716;2023-12-07T15:53:54;100293.16;;;-28.88;59.57
70458;BME280;57919;56.194;95.716;2023-12-07T16:03:56;100311.63;;;-28.59;59.93
70458;BME280;57919;56.194;95.716;2023-12-07T16:13:58;100315.47;;;-29.14;59.03
70458;BME280;57919;56.194;95.716;2023-12-07T16:24:00;100320.88;;;-29.50;59.64
70458;BME280;57919;56.194;95.716;2023-12-07T16:34:02;100343.16;;;-29.57;60.02
70458;BME280;57919;56.194;95.716;2023-12-07T16:44:04;100346.94;;;-30.01;59.45
70458;BME280;57919;56.194;95.716;2023-12-07T16:54:07;100363.31;;;-30.16;60.02
70458;BME280;57919;56.194;95.716;2023-12-07T17:04:09;100362.50;;;-30.44;59.25
70458;BME280;57919;56.194;95.716;2023-12-07T17:14:11;100391.78;;;-30.56;59.17
70458;BME280;57919;56.194;95.716;2023-12-07T17:24:13;100394.50;;;-30.82;58.81
70458;BME280;57919;56.194;95.716;2023-12-07T17:34:16;100380.63;;;-31.59;58.83
70458;BME280;57919;56.194;95.716;2023-12-07T17:44:18;100400.50;;;-31.53;59.01
70458;BME280;57919;56.194;95.716;2023-12-07T17:54:20;100393.94;;;-31.43;59.73
70458;BME280;57919;56.194;95.716;2023-12-07T18:04:25;100405.22;;;-31.75;58.54
70458;BME280;57919;56.194;95.716;2023-12-07T18:14:28;100404.25;;;-31.59;60.13
70458;BME280;57919;56.194;95.716;2023-12-07T18:24:31;100424.34;;;-31.05;60.10
70458;BME280;57919;56.194;95.716;2023-12-07T18:34:33;100422.44;;;-31.08;59.99
70458;BME280;57919;56.194;95.716;2023-12-07T18:44:35;100420.34;;;-31.31;59.40
70458;BME280;57919;56.194;95.716;2023-12-07T18:54:39;100430.53;;;-31.57;59.25
70458;BME280;57919;56.194;95.716;2023-12-07T19:04:42;100455.53;;;-31.68;59.44
70458;BME280;57919;56.194;95.716;2023-12-07T19:14:44;100462.81;;;-31.88;59.37
70458;BME280;57919;56.194;95.716;2023-12-07T19:24:47;100465.50;;;-32.04;59.16
70458;BME280;57919;56.194;95.716;2023-12-07T19:34:49;100489.88;;;-32.22;59.21
70458;BME280;57919;56.194;95.716;2023-12-07T19:44:50;100496.50;;;-32.14;59.38
70458;BME280;57919;56.194;95.716;2023-12-07T19:54:54;100512.22;;;-32.16;59.27
70458;BME280;57919;56.194;95.716;2023-12-07T20:04:56;100524.91;;;-32.84;58.11
70458;BME280;57919;56.194;95.716;2023-12-07T20:14:58;100529.78;;;-32.85;58.92
70458;BME280;57919;56.194;95.716;2023-12-07T20:25:00;100537.78;;;-33.14;58.64
70458;BME280;57919;56.194;95.716;2023-12-07T20:35:03;100548.91;;;-33.45;58.46
70458;BME280;57919;56.194;95.716;2023-12-07T20:45:06;100562.19;;;-33.70;58.05
70458;BME280;57919;56.194;95.716;2023-12-07T20:55:08;100553.94;;;-33.45;59.13
70458;BME280;57919;56.194;95.716;2023-12-07T21:05:11;100548.44;;;-33.16;59.34
70458;BME280;57919;56.194;95.716;2023-12-07T21:15:13;100567.13;;;-33.14;58.79
70458;BME280;57919;56.194;95.716;2023-12-07T21:25:16;100561.63;;;-33.19;58.98
70458;BME280;57919;56.194;95.716;2023-12-07T21:35:19;100581.34;;;-33.15;59.11
70458;BME280;57919;56.194;95.716;2023-12-07T21:45:21;100563.69;;;-33.48;58.17
70458;BME280;57919;56.194;95.716;2023-12-07T21:55:23;100582.53;;;-33.60;58.62
70458;BME280;57919;56.194;95.716;2023-12-07T22:05:25;100595.06;;;-33.69;58.68
70458;BME280;57919;56.194;95.716;2023-12-07T22:15:27;100599.84;;;-33.63;58.45
70458;BME280;57919;56.194;95.716;2023-12-07T22:25:29;100601.34;;;-33.41;58.68
70458;BME280;57919;56.194;95.716;2023-12-07T22:35:31;100603.38;;;-33.45;58.63
70458;BME280;57919;56.194;95.716;2023-12-07T22:45:33;100592.28;;;-33.63;58.94
70458;BME280;57919;56.194;95.716;2023-12-07T22:55:35;100622.03;;;-33.83;58.58
70458;BME280;57919;56.194;95.716;2023-12-07T23:05:37;100617.81;;;-34.07;58.87
70458;BME280;57919;56.194;95.716;2023-12-07T23:15:39;100636.72;;;-34.11;58.51
70458;BME280;57919;56.194;95.716;2023-12-07T23:25:44;100639.94;;;-34.28;58.33
70458;BME280;57919;56.194;95.716;2023-12-07T23:35:46;100660.94;;;-34.66;58.04
70458;BME280;57919;56.194;95.716;2023-12-07T23:45:48;100682.63;;;-34.82;58.54
70458;BME280;57919;56.194;95.716;2023-12-07T23:55:51;100658.63;;;-34.87;58.88
